createdAt,value
2022-08-03T00:03:53.044Z,19.24
2022-08-03T00:08:59.136Z,19.18
2022-08-03T00:14:03.728Z,18.59
2022-08-03T00:19:08.949Z,18.94
2022-08-03T00:24:14.426Z,18.96
2022-08-03T00:29:18.558Z,18.89
2022-08-03T00:34:32.644Z,18.85
2022-08-03T00:39:48.235Z,18.90
2022-08-03T00:44:52.328Z,18.91
2022-08-03T00:49:56.930Z,18.76
2022-08-03T00:55:02.479Z,18.87
2022-08-03T01:00:08.915Z,18.94
2022-08-03T01:05:13.814Z,19.19
2022-08-03T01:10:29.804Z,19.17
2022-08-03T01:15:40.449Z,18.82
2022-08-03T01:20:48.493Z,18.48
2022-08-03T01:26:07.264Z,18.58
2022-08-03T01:31:15.237Z,18.54
2022-08-03T01:36:25.745Z,18.74
2022-08-03T01:41:34.593Z,18.71
2022-08-03T01:46:47.741Z,18.48
2022-08-03T01:51:58.444Z,17.69
2022-08-03T01:57:10.899Z,18.24
2022-08-03T02:02:33.672Z,18.28
2022-08-03T02:07:41.065Z,18.03
2022-08-03T02:12:51.076Z,18.04
2022-08-03T02:17:59.069Z,18.23
2022-08-03T02:23:03.515Z,18.12
2022-08-03T02:28:10.172Z,18.19
2022-08-03T02:33:21.336Z,18.09
2022-08-03T02:38:29.960Z,17.88
2022-08-03T02:43:41.277Z,17.84
2022-08-03T02:49:40.676Z,18.05
2022-08-03T02:54:29.635Z,17.78
2022-08-03T02:59:34.370Z,17.36
2022-08-03T03:04:43.140Z,17.09
2022-08-03T03:10:05.871Z,17.59
2022-08-03T03:15:10.782Z,17.53
2022-08-03T03:20:29.471Z,17.36
2022-08-03T03:25:34.659Z,17.28
2022-08-03T03:30:38.785Z,17.10
2022-08-03T03:35:45.896Z,17.02
2022-08-03T03:40:50.438Z,16.97
2022-08-03T03:45:56.090Z,17.20
2022-08-03T03:51:02.445Z,17.52
2022-08-03T03:56:06.608Z,17.52
2022-08-03T04:01:11.023Z,17.37
2022-08-03T04:06:34.256Z,17.43
2022-08-03T04:11:42.145Z,17.68
2022-08-03T04:16:50.173Z,17.83
2022-08-03T04:21:59.374Z,17.83
2022-08-03T04:27:06.166Z,17.71
2022-08-03T04:32:11.826Z,17.56
2022-08-03T04:37:24.936Z,17.85
2022-08-03T04:42:29.969Z,17.89
2022-08-03T04:47:35.456Z,17.62
2022-08-03T04:52:41.208Z,17.80
2022-08-03T04:57:45.424Z,18.37
2022-08-03T05:02:52.301Z,18.41
2022-08-03T05:07:58.318Z,18.35
2022-08-03T05:13:04.961Z,18.42
2022-08-03T05:18:13.670Z,18.26
2022-08-03T05:23:20.147Z,18.39
2022-08-03T05:28:24.548Z,18.52
2022-08-03T05:33:29.194Z,18.44
2022-08-03T05:38:35.570Z,18.49
2022-08-03T05:43:40.223Z,18.86
2022-08-03T05:48:45.133Z,19.27
2022-08-03T05:53:50.835Z,19.54
2022-08-03T05:58:55.078Z,19.82
2022-08-03T06:03:59.232Z,19.98
2022-08-03T06:09:05.129Z,20.19
2022-08-03T06:14:10.415Z,20.30
2022-08-03T06:19:14.545Z,20.33
2022-08-03T06:24:20.086Z,20.35
2022-08-03T06:29:29.235Z,20.50
2022-08-03T06:34:35.804Z,20.66
2022-08-03T06:39:41.362Z,20.84
2022-08-03T06:44:46.561Z,20.84
2022-08-03T06:50:14.286Z,21.05
2022-08-03T06:55:18.102Z,21.56
2022-08-03T07:00:22.926Z,21.70
2022-08-03T07:05:27.111Z,22.07
2022-08-03T07:10:32.589Z,22.24
2022-08-03T07:15:53.692Z,22.49
2022-08-03T07:20:59.527Z,22.88
2022-08-03T07:26:05.292Z,23.36
2022-08-03T07:31:09.394Z,23.77
2022-08-03T07:36:13.575Z,24.03
2022-08-03T07:41:19.200Z,23.86
2022-08-03T07:46:23.237Z,23.84
2022-08-03T07:51:30.737Z,24.11
2022-08-03T07:56:36.157Z,24.15
2022-08-03T08:01:40.308Z,24.37
2022-08-03T08:06:44.436Z,24.11
2022-08-03T08:11:51.356Z,24.23
2022-08-03T08:16:55.611Z,24.27
2022-08-03T08:22:02.404Z,24.51
2022-08-03T08:27:13.271Z,24.58
2022-08-03T08:32:17.621Z,24.46
2022-08-03T08:37:23.222Z,24.69
2022-08-03T08:42:29.601Z,24.81
2022-08-03T08:47:51.181Z,24.99
2022-08-03T08:52:59.934Z,25.09
2022-08-03T08:58:07.665Z,25.05
2022-08-03T09:03:11.939Z,24.92
2022-08-03T09:08:26.996Z,25.11
2022-08-03T09:13:34.382Z,24.90
2022-08-03T09:18:42.865Z,24.96
2022-08-03T09:24:01.668Z,24.76
2022-08-03T09:29:15.349Z,24.52
2022-08-03T09:34:19.669Z,24.42
2022-08-03T09:39:40.361Z,24.49
2022-08-03T09:44:49.687Z,24.39
2022-08-03T09:50:01.600Z,24.42
2022-08-03T09:56:30.958Z,24.52
2022-08-03T10:00:54.187Z,24.85
2022-08-03T10:05:59.933Z,24.94
2022-08-03T10:11:04.249Z,24.98
2022-08-03T10:16:23.955Z,25.16
2022-08-03T10:21:33.342Z,26.22
2022-08-03T10:26:49.494Z,26.82
2022-08-03T10:31:58.833Z,27.79
2022-08-03T10:37:10.050Z,28.19
2022-08-03T10:42:14.826Z,28.60
2022-08-03T10:47:21.049Z,28.56
2022-08-03T10:52:32.518Z,28.29
2022-08-03T10:57:49.652Z,29.19
2022-08-03T11:03:07.837Z,29.59
2022-08-03T11:08:36.136Z,29.77
2022-08-03T11:13:59.177Z,29.97
2022-08-03T11:19:06.263Z,29.32
2022-08-03T11:24:10.480Z,28.83
2022-08-03T11:29:31.439Z,28.97
2022-08-03T11:35:10.731Z,29.22
2022-08-03T11:40:35.295Z,30.03
2022-08-03T11:45:39.934Z,29.77
2022-08-03T11:50:46.532Z,29.29
2022-08-03T11:55:50.521Z,30.00
2022-08-03T12:01:04.284Z,30.30
2022-08-03T12:06:13.139Z,30.55
2022-08-03T12:11:18.674Z,30.28
2022-08-03T12:16:23.992Z,29.78
2022-08-03T12:21:30.962Z,29.62
2022-08-03T12:26:58.093Z,30.11
2022-08-03T12:32:03.385Z,30.45
2022-08-03T12:37:19.095Z,29.85
2022-08-03T12:42:32.090Z,29.84
2022-08-03T12:47:51.817Z,28.80
2022-08-03T12:52:58.760Z,28.92
2022-08-03T12:58:03.311Z,29.04
2022-08-03T13:08:35.632Z,29.07
2022-08-03T13:13:40.422Z,28.96
2022-08-03T13:18:46.597Z,29.21
2022-08-03T13:23:53.753Z,29.74
2022-08-03T13:28:57.799Z,30.07
2022-08-03T13:34:01.919Z,30.14
2022-08-03T13:39:09.205Z,30.33
2022-08-03T13:44:29.810Z,30.55
2022-08-03T13:49:34.173Z,30.67
2022-08-03T13:54:39.646Z,30.80
2022-08-03T13:59:51.135Z,30.93
2022-08-03T14:04:55.755Z,30.66
2022-08-03T14:10:01.863Z,30.36
2022-08-03T14:15:10.164Z,29.74
2022-08-03T14:20:36.645Z,29.23
2022-08-03T14:25:44.486Z,28.81
2022-08-03T14:30:57.046Z,28.54
2022-08-03T14:36:02.105Z,28.64
2022-08-03T14:41:12.234Z,28.98
2022-08-03T14:46:24.682Z,29.22
2022-08-03T14:51:29.949Z,29.49
2022-08-03T14:56:37.705Z,29.53
2022-08-03T15:02:04.342Z,29.30
2022-08-03T15:07:06.443Z,29.12
2022-08-03T15:12:12.581Z,28.90
2022-08-03T15:17:16.602Z,29.19
2022-08-03T15:22:25.332Z,28.93
2022-08-03T15:28:02.754Z,28.77
2022-08-03T15:33:04.741Z,28.45
2022-08-03T15:38:09.794Z,28.35
2022-08-03T15:43:15.381Z,28.43
2022-08-03T15:48:20.249Z,28.22
2022-08-03T15:53:31.116Z,28.21
2022-08-03T15:59:03.386Z,28.15
2022-08-03T16:04:02.868Z,27.89
2022-08-03T16:09:22.839Z,27.83
2022-08-03T16:14:33.312Z,27.85
2022-08-03T16:19:42.047Z,27.65
2022-08-03T16:24:47.384Z,27.56
2022-08-03T16:29:53.092Z,27.39
2022-08-03T16:34:57.145Z,27.36
2022-08-03T16:40:02.988Z,27.31
2022-08-03T16:45:11.519Z,27.26
2022-08-03T16:50:19.857Z,27.14
2022-08-03T16:55:51.611Z,27.08
2022-08-03T17:00:51.131Z,26.20
2022-08-03T17:05:59.567Z,25.95
2022-08-03T17:11:05.798Z,25.73
2022-08-03T17:16:15.286Z,25.27
2022-08-03T17:21:29.514Z,25.31
2022-08-03T17:26:40.958Z,25.15
2022-08-03T17:31:49.998Z,25.04
2022-08-03T17:37:50.284Z,24.94
2022-08-03T17:42:31.187Z,24.78
2022-08-03T17:47:42.151Z,24.62
2022-08-03T17:52:50.638Z,24.50
2022-08-03T18:03:58.656Z,24.66
2022-08-03T18:09:05.092Z,24.97
2022-08-03T18:14:38.796Z,24.81
2022-08-03T18:25:13.200Z,24.20
2022-08-03T18:30:17.591Z,24.39
2022-08-03T18:35:24.756Z,24.07
2022-08-03T18:40:30.999Z,24.03
2022-08-03T18:45:57.351Z,23.52
2022-08-03T18:51:08.551Z,23.68
2022-08-03T18:56:24.742Z,23.50
2022-08-03T19:01:57.980Z,23.14
2022-08-03T19:07:04.728Z,23.29
2022-08-03T19:12:28.209Z,23.15
2022-08-03T19:17:38.464Z,22.92
2022-08-03T19:22:47.265Z,22.72
2022-08-03T19:27:51.110Z,22.54
2022-08-03T19:32:55.916Z,22.22
2022-08-03T19:38:02.640Z,22.11
2022-08-03T19:43:17.915Z,22.07
2022-08-03T19:48:30.607Z,22.01
2022-08-03T19:53:42.826Z,22.10
2022-08-03T19:58:53.326Z,21.69
2022-08-03T20:03:58.599Z,21.56
2022-08-03T20:09:06.344Z,21.47
2022-08-03T20:14:13.223Z,21.27
2022-08-03T20:19:24.858Z,21.35
2022-08-03T20:24:42.110Z,21.36
2022-08-03T20:30:06.197Z,21.27
2022-08-03T20:35:12.008Z,21.41
2022-08-03T20:40:17.720Z,20.98
2022-08-03T20:46:00.599Z,20.88
2022-08-03T20:50:47.965Z,20.88
2022-08-03T20:56:02.218Z,20.86
2022-08-03T21:01:06.938Z,20.96
2022-08-03T21:06:16.473Z,20.97
2022-08-03T21:11:41.459Z,20.96
2022-08-03T21:12:57.649Z,24.58
2022-08-03T21:13:04.758Z,24.42
2022-08-03T21:16:48.265Z,20.85
2022-08-03T21:21:53.159Z,20.71
2022-08-03T21:26:59.549Z,20.52
2022-08-03T21:32:03.956Z,20.60
2022-08-03T21:37:14.345Z,20.19
2022-08-03T21:42:23.893Z,20.41
2022-08-03T21:47:28.266Z,19.94
2022-08-03T21:52:34.711Z,20.06
2022-08-03T21:57:42.313Z,20.21
2022-08-03T22:02:54.417Z,19.95
2022-08-03T22:08:00.621Z,19.80
2022-08-03T22:13:06.080Z,19.91
2022-08-03T22:18:10.866Z,19.81
2022-08-03T22:23:18.383Z,20.07
2022-08-03T22:28:31.036Z,19.90
2022-08-03T22:33:36.230Z,19.82
2022-08-03T22:38:40.872Z,19.90
2022-08-03T22:43:46.409Z,19.77
2022-08-03T22:48:52.972Z,19.16
2022-08-03T22:53:57.569Z,18.99
2022-08-03T22:59:41.265Z,18.89
2022-08-03T23:04:30.248Z,18.79
2022-08-03T23:09:35.944Z,18.58
2022-08-03T23:14:45.222Z,18.62
2022-08-03T23:19:52.258Z,18.48
2022-08-03T23:24:58.425Z,18.28
2022-08-03T23:30:03.990Z,18.48
2022-08-03T23:36:27.552Z,18.50
2022-08-03T23:40:51.308Z,18.80
2022-08-03T23:46:00.609Z,18.75
2022-08-03T23:51:14.524Z,18.62
2022-08-03T23:56:25.538Z,18.30
